sensor_id;sensor_type;location;lat;lon;timestamp;pressure;altitude;pressure_sealevel;temperature;humidity
72308;BME280;60257;42.638;23.376;2023-06-22T00:01:10;95046.47;;;18.10;68.96
72308;BME280;60257;42.638;23.376;2023-06-22T00:03:36;95048.03;;;18.03;69.31
72308;BME280;60257;42.638;23.376;2023-06-22T00:06:02;95034.94;;;18.04;69.12
72308;BME280;60257;42.638;23.376;2023-06-22T00:08:28;95042.84;;;18.02;69.51
72308;BME280;60257;42.638;23.376;2023-06-22T00:10:53;95050.00;;;18.03;69.68
72308;BME280;60257;42.638;23.376;2023-06-22T00:13:19;95045.25;;;18.03;69.79
72308;BME280;60257;42.638;23.376;2023-06-22T00:15:45;95048.03;;;18.03;69.81
72308;BME280;60257;42.638;23.376;2023-06-22T00:18:11;95030.88;;;17.91;70.26
72308;BME280;60257;42.638;23.376;2023-06-22T00:20:38;95038.84;;;17.99;70.29
72308;BME280;60257;42.638;23.376;2023-06-22T00:23:06;95036.88;;;18.00;69.99
72308;BME280;60257;42.638;23.376;2023-06-22T00:25:37;95026.97;;;17.99;69.75
72308;BME280;60257;42.638;23.376;2023-06-22T00:28:03;95020.22;;;18.00;70.09
72308;BME280;60257;42.638;23.376;2023-06-22T00:30:30;95025.38;;;17.98;70.27
72308;BME280;60257;42.638;23.376;2023-06-22T00:32:57;95009.03;;;17.89;70.72
72308;BME280;60257;42.638;23.376;2023-06-22T00:35:22;95010.63;;;17.90;70.60
72308;BME280;60257;42.638;23.376;2023-06-22T00:37:48;95018.63;;;17.95;70.70
72308;BME280;60257;42.638;23.376;2023-06-22T00:40:13;95019.81;;;17.98;70.80
72308;BME280;60257;42.638;23.376;2023-06-22T00:42:40;95014.22;;;17.91;70.72
72308;BME280;60257;42.638;23.376;2023-06-22T00:45:06;95019.00;;;17.94;70.91
72308;BME280;60257;42.638;23.376;2023-06-22T00:47:34;95016.22;;;17.94;70.72
72308;BME280;60257;42.638;23.376;2023-06-22T00:50:00;95013.41;;;17.90;69.71
72308;BME280;60257;42.638;23.376;2023-06-22T00:52:27;95014.59;;;17.86;69.23
72308;BME280;60257;42.638;23.376;2023-06-22T00:54:56;95010.97;;;17.78;69.39
72308;BME280;60257;42.638;23.376;2023-06-22T00:57:24;95019.66;;;17.77;69.75
72308;BME280;60257;42.638;23.376;2023-06-22T00:59:53;95024.41;;;17.73;70.14
72308;BME280;60257;42.638;23.376;2023-06-22T01:02:19;95004.56;;;17.71;70.47
72308;BME280;60257;42.638;23.376;2023-06-22T01:04:45;95002.97;;;17.73;70.96
72308;BME280;60257;42.638;23.376;2023-06-22T01:07:42;95025.00;;;17.59;72.23
72308;BME280;60257;42.638;23.376;2023-06-22T01:10:18;95029.75;;;17.55;72.58
72308;BME280;60257;42.638;23.376;2023-06-22T01:12:52;95028.16;;;17.54;73.00
72308;BME280;60257;42.638;23.376;2023-06-22T01:15:53;95018.59;;;17.51;73.02
72308;BME280;60257;42.638;23.376;2023-06-22T01:18:22;95023.72;;;17.46;73.04
72308;BME280;60257;42.638;23.376;2023-06-22T01:20:52;95020.22;;;17.52;73.35
72308;BME280;60257;42.638;23.376;2023-06-22T01:26:40;95028.84;;;17.44;73.37
72308;BME280;60257;42.638;23.376;2023-06-22T01:29:08;95020.03;;;17.35;73.72
72308;BME280;60257;42.638;23.376;2023-06-22T01:31:38;95031.25;;;17.45;73.41
72308;BME280;60257;42.638;23.376;2023-06-22T01:34:06;95032.88;;;17.50;73.36
72308;BME280;60257;42.638;23.376;2023-06-22T01:36:33;95030.88;;;17.50;73.16
72308;BME280;60257;42.638;23.376;2023-06-22T01:38:59;95037.28;;;17.58;73.05
72308;BME280;60257;42.638;23.376;2023-06-22T01:41:26;95029.47;;;17.63;72.99
72308;BME280;60257;42.638;23.376;2023-06-22T01:43:54;95027.41;;;17.60;73.28
72308;BME280;60257;42.638;23.376;2023-06-22T01:46:21;95040.13;;;17.61;73.43
72308;BME280;60257;42.638;23.376;2023-06-22T01:48:47;95040.47;;;17.60;73.45
72308;BME280;60257;42.638;23.376;2023-06-22T01:51:13;95037.91;;;17.78;73.17
72308;BME280;60257;42.638;23.376;2023-06-22T01:53:40;95044.63;;;17.77;73.46
72308;BME280;60257;42.638;23.376;2023-06-22T01:56:06;95043.00;;;17.72;73.60
72308;BME280;60257;42.638;23.376;2023-06-22T01:58:32;95050.88;;;17.66;74.03
72308;BME280;60257;42.638;23.376;2023-06-22T02:01:11;95043.25;;;17.56;74.45
72308;BME280;60257;42.638;23.376;2023-06-22T02:03:55;95037.59;;;17.46;74.60
72308;BME280;60257;42.638;23.376;2023-06-22T02:06:33;95045.53;;;17.51;74.61
72308;BME280;60257;42.638;23.376;2023-06-22T02:09:08;95046.31;;;17.48;74.71
72308;BME280;60257;42.638;23.376;2023-06-22T02:11:36;95052.63;;;17.45;74.85
72308;BME280;60257;42.638;23.376;2023-06-22T02:14:02;95061.00;;;17.48;74.35
72308;BME280;60257;42.638;23.376;2023-06-22T02:16:30;95063.34;;;17.46;74.33
72308;BME280;60257;42.638;23.376;2023-06-22T02:19:01;95045.84;;;17.42;74.36
72308;BME280;60257;42.638;23.376;2023-06-22T02:21:28;95040.72;;;17.41;74.50
72308;BME280;60257;42.638;23.376;2023-06-22T02:23:54;95036.66;;;17.35;74.69
72308;BME280;60257;42.638;23.376;2023-06-22T02:26:20;95040.66;;;17.37;74.38
72308;BME280;60257;42.638;23.376;2023-06-22T02:28:45;95048.19;;;17.37;74.58
72308;BME280;60257;42.638;23.376;2023-06-22T02:31:11;95049.34;;;17.32;74.91
72308;BME280;60257;42.638;23.376;2023-06-22T02:33:36;95051.69;;;17.30;75.02
72308;BME280;60257;42.638;23.376;2023-06-22T02:36:02;95045.38;;;17.33;74.91
72308;BME280;60257;42.638;23.376;2023-06-22T02:38:35;95019.91;;;17.20;74.79
72308;BME280;60257;42.638;23.376;2023-06-22T02:41:01;95041.41;;;17.30;74.76
72308;BME280;60257;42.638;23.376;2023-06-22T02:43:27;95044.63;;;17.36;74.06
72308;BME280;60257;42.638;23.376;2023-06-22T02:45:53;95045.09;;;17.42;73.78
72308;BME280;60257;42.638;23.376;2023-06-22T02:48:19;95042.31;;;17.42;73.64
72308;BME280;60257;42.638;23.376;2023-06-22T02:50:44;95047.44;;;17.40;73.45
72308;BME280;60257;42.638;23.376;2023-06-22T02:53:09;95053.34;;;17.38;73.41
72308;BME280;60257;42.638;23.376;2023-06-22T02:55:35;95053.66;;;17.29;73.88
72308;BME280;60257;42.638;23.376;2023-06-22T02:58:00;95035.34;;;17.18;74.26
72308;BME280;60257;42.638;23.376;2023-06-22T03:00:30;95049.25;;;17.25;74.40
72308;BME280;60257;42.638;23.376;2023-06-22T03:02:57;95048.47;;;17.28;74.31
72308;BME280;60257;42.638;23.376;2023-06-22T03:05:23;95049.28;;;17.28;74.34
72308;BME280;60257;42.638;23.376;2023-06-22T03:07:49;95064.38;;;17.35;74.23
72308;BME280;60257;42.638;23.376;2023-06-22T03:10:15;95057.66;;;17.36;74.10
72308;BME280;60257;42.638;23.376;2023-06-22T03:12:42;95052.19;;;17.39;73.95
72308;BME280;60257;42.638;23.376;2023-06-22T03:15:09;95058.16;;;17.41;73.98
72308;BME280;60257;42.638;23.376;2023-06-22T03:17:36;95058.53;;;17.40;74.19
72308;BME280;60257;42.638;23.376;2023-06-22T03:20:04;95060.50;;;17.43;73.98
72308;BME280;60257;42.638;23.376;2023-06-22T03:22:38;95073.94;;;17.37;74.28
72308;BME280;60257;42.638;23.376;2023-06-22T03:25:04;95074.72;;;17.38;73.81
72308;BME280;60257;42.638;23.376;2023-06-22T03:27:41;95086.25;;;17.40;73.82
72308;BME280;60257;42.638;23.376;2023-06-22T03:30:08;95083.09;;;17.41;74.13
72308;BME280;60257;42.638;23.376;2023-06-22T03:32:34;95084.34;;;17.47;74.26
72308;BME280;60257;42.638;23.376;2023-06-22T03:34:59;95083.16;;;17.48;74.20
72308;BME280;60257;42.638;23.376;2023-06-22T03:37:26;95087.13;;;17.47;74.43
72308;BME280;60257;42.638;23.376;2023-06-22T03:39:52;95081.22;;;17.52;74.18
72308;BME280;60257;42.638;23.376;2023-06-22T03:42:18;95074.50;;;17.53;74.03
72308;BME280;60257;42.638;23.376;2023-06-22T03:44:43;95086.91;;;17.63;73.78
72308;BME280;60257;42.638;23.376;2023-06-22T03:47:08;95088.09;;;17.65;73.98
72308;BME280;60257;42.638;23.376;2023-06-22T03:49:35;95090.13;;;17.68;73.72
72308;BME280;60257;42.638;23.376;2023-06-22T03:52:02;95092.09;;;17.68;72.96
72308;BME280;60257;42.638;23.376;2023-06-22T03:54:28;95094.13;;;17.71;72.79
72308;BME280;60257;42.638;23.376;2023-06-22T03:56:55;95094.97;;;17.79;73.20
72308;BME280;60257;42.638;23.376;2023-06-22T03:59:21;95099.41;;;17.87;73.44
72308;BME280;60257;42.638;23.376;2023-06-22T04:01:46;95096.25;;;17.88;72.77
72308;BME280;60257;42.638;23.376;2023-06-22T04:04:12;95103.41;;;17.93;72.28
72308;BME280;60257;42.638;23.376;2023-06-22T04:06:38;95096.28;;;17.92;72.53
72308;BME280;60257;42.638;23.376;2023-06-22T04:09:03;95104.25;;;17.97;72.51
72308;BME280;60257;42.638;23.376;2023-06-22T04:11:29;95113.78;;;17.99;72.66
72308;BME280;60257;42.638;23.376;2023-06-22T04:13:54;95096.81;;;18.08;72.25
72308;BME280;60257;42.638;23.376;2023-06-22T04:16:20;95098.84;;;18.15;71.98
72308;BME280;60257;42.638;23.376;2023-06-22T04:18:46;95093.34;;;18.22;72.09
72308;BME280;60257;42.638;23.376;2023-06-22T04:21:12;95095.78;;;18.30;71.79
72308;BME280;60257;42.638;23.376;2023-06-22T04:23:38;95088.22;;;18.24;72.22
72308;BME280;60257;42.638;23.376;2023-06-22T04:26:04;95092.16;;;18.23;72.64
72308;BME280;60257;42.638;23.376;2023-06-22T04:28:29;95069.53;;;18.21;72.81
72308;BME280;60257;42.638;23.376;2023-06-22T04:31:00;95077.56;;;18.36;72.90
72308;BME280;60257;42.638;23.376;2023-06-22T04:33:27;95074.84;;;18.43;73.10
72308;BME280;60257;42.638;23.376;2023-06-22T04:35:57;95067.38;;;18.55;73.17
72308;BME280;60257;42.638;23.376;2023-06-22T04:38:23;95059.88;;;18.59;73.20
72308;BME280;60257;42.638;23.376;2023-06-22T04:40:50;95066.34;;;18.73;72.84
72308;BME280;60257;42.638;23.376;2023-06-22T04:43:16;95067.16;;;18.81;72.45
72308;BME280;60257;42.638;23.376;2023-06-22T04:45:41;95064.44;;;18.95;72.66
72308;BME280;60257;42.638;23.376;2023-06-22T04:48:07;95067.66;;;19.04;72.31
72308;BME280;60257;42.638;23.376;2023-06-22T04:50:36;95072.44;;;19.07;71.55
72308;BME280;60257;42.638;23.376;2023-06-22T04:53:02;95066.88;;;19.14;71.32
72308;BME280;60257;42.638;23.376;2023-06-22T04:55:31;95066.53;;;19.30;72.11
72308;BME280;60257;42.638;23.376;2023-06-22T04:57:56;95071.72;;;19.39;71.24
72308;BME280;60257;42.638;23.376;2023-06-22T05:00:22;95082.47;;;19.44;70.69
72308;BME280;60257;42.638;23.376;2023-06-22T05:02:48;95078.97;;;19.50;70.71
72308;BME280;60257;42.638;23.376;2023-06-22T05:05:15;95090.91;;;19.69;69.33
72308;BME280;60257;42.638;23.376;2023-06-22T05:07:46;95087.34;;;19.79;69.00
72308;BME280;60257;42.638;23.376;2023-06-22T05:10:14;95101.69;;;19.88;68.23
72308;BME280;60257;42.638;23.376;2023-06-22T05:12:41;95092.91;;;19.82;67.22
72308;BME280;60257;42.638;23.376;2023-06-22T05:15:07;95073.81;;;19.77;67.81
72308;BME280;60257;42.638;23.376;2023-06-22T05:17:34;95086.56;;;19.96;68.19
72308;BME280;60257;42.638;23.376;2023-06-22T05:20:00;95087.34;;;20.00;67.29
72308;BME280;60257;42.638;23.376;2023-06-22T05:22:26;95083.38;;;20.08;66.52
72308;BME280;60257;42.638;23.376;2023-06-22T05:24:51;95081.41;;;20.19;66.52
72308;BME280;60257;42.638;23.376;2023-06-22T05:27:17;95098.53;;;20.39;65.60
72308;BME280;60257;42.638;23.376;2023-06-22T05:29:42;95096.53;;;20.47;65.23
72308;BME280;60257;42.638;23.376;2023-06-22T05:32:08;95098.09;;;20.55;64.86
72308;BME280;60257;42.638;23.376;2023-06-22T05:34:33;95100.47;;;20.70;64.33
72308;BME280;60257;42.638;23.376;2023-06-22T05:36:59;95098.88;;;20.69;64.01
72308;BME280;60257;42.638;23.376;2023-06-22T05:39:25;95115.97;;;20.89;63.51
72308;BME280;60257;42.638;23.376;2023-06-22T05:41:51;95114.34;;;20.92;62.85
72308;BME280;60257;42.638;23.376;2023-06-22T05:44:18;95114.72;;;21.04;62.51
72308;BME280;60257;42.638;23.376;2023-06-22T05:46:44;95126.69;;;21.05;61.93
72308;BME280;60257;42.638;23.376;2023-06-22T05:49:12;95120.69;;;20.99;61.71
72308;BME280;60257;42.638;23.376;2023-06-22T05:51:38;95133.91;;;20.78;61.80
72308;BME280;60257;42.638;23.376;2023-06-22T05:54:05;95130.28;;;20.84;63.29
72308;BME280;60257;42.638;23.376;2023-06-22T05:56:30;95125.47;;;20.99;63.21
72308;BME280;60257;42.638;23.376;2023-06-22T05:58:56;95125.03;;;21.22;63.48
72308;BME280;60257;42.638;23.376;2023-06-22T06:01:21;95127.00;;;21.32;63.30
72308;BME280;60257;42.638;23.376;2023-06-22T06:03:47;95124.56;;;21.41;64.20
72308;BME280;60257;42.638;23.376;2023-06-22T06:06:15;95116.56;;;21.46;61.92
72308;BME280;60257;42.638;23.376;2023-06-22T06:08:40;95118.94;;;21.52;63.81
72308;BME280;60257;42.638;23.376;2023-06-22T06:11:06;95113.28;;;21.62;62.91
72308;BME280;60257;42.638;23.376;2023-06-22T06:13:31;95116.44;;;21.75;63.58
72308;BME280;60257;42.638;23.376;2023-06-22T06:15:57;95111.66;;;21.75;63.21
72308;BME280;60257;42.638;23.376;2023-06-22T06:18:24;95115.19;;;21.76;61.99
72308;BME280;60257;42.638;23.376;2023-06-22T06:20:49;95103.63;;;21.81;61.31
72308;BME280;60257;42.638;23.376;2023-06-22T06:23:15;95102.78;;;21.84;59.62
72308;BME280;60257;42.638;23.376;2023-06-22T06:25:40;95103.69;;;21.74;61.11
72308;BME280;60257;42.638;23.376;2023-06-22T06:28:06;95099.63;;;21.82;64.03
72308;BME280;60257;42.638;23.376;2023-06-22T06:30:31;95107.84;;;22.07;64.78
72308;BME280;60257;42.638;23.376;2023-06-22T06:32:57;95099.38;;;22.21;61.46
72308;BME280;60257;42.638;23.376;2023-06-22T06:35:22;95104.75;;;22.46;58.82
72308;BME280;60257;42.638;23.376;2023-06-22T06:37:49;95103.47;;;22.57;56.92
72308;BME280;60257;42.638;23.376;2023-06-22T06:40:16;95103.38;;;22.68;57.88
72308;BME280;60257;42.638;23.376;2023-06-22T06:42:46;95097.78;;;22.64;57.17
72308;BME280;60257;42.638;23.376;2023-06-22T06:45:18;95096.13;;;22.74;57.50
72308;BME280;60257;42.638;23.376;2023-06-22T06:47:44;95088.06;;;22.83;55.33
72308;BME280;60257;42.638;23.376;2023-06-22T06:50:10;95090.78;;;22.90;56.18
72308;BME280;60257;42.638;23.376;2023-06-22T06:52:36;95093.09;;;22.99;57.19
72308;BME280;60257;42.638;23.376;2023-06-22T06:55:02;95088.28;;;22.99;56.29
72308;BME280;60257;42.638;23.376;2023-06-22T06:57:31;95087.28;;;23.17;55.71
72308;BME280;60257;42.638;23.376;2023-06-22T06:59:59;95086.84;;;23.18;56.18
72308;BME280;60257;42.638;23.376;2023-06-22T07:02:25;95081.84;;;23.36;58.12
72308;BME280;60257;42.638;23.376;2023-06-22T07:04:53;95084.09;;;23.49;57.51
72308;BME280;60257;42.638;23.376;2023-06-22T07:07:18;95075.25;;;23.54;56.96
72308;BME280;60257;42.638;23.376;2023-06-22T07:09:43;95079.63;;;23.55;58.32
72308;BME280;60257;42.638;23.376;2023-06-22T07:12:09;95085.13;;;23.62;57.85
72308;BME280;60257;42.638;23.376;2023-06-22T07:14:34;95088.72;;;23.62;57.01
72308;BME280;60257;42.638;23.376;2023-06-22T07:17:00;95084.34;;;23.61;56.80
72308;BME280;60257;42.638;23.376;2023-06-22T07:19:26;95081.50;;;23.65;57.01
72308;BME280;60257;42.638;23.376;2023-06-22T07:21:53;95073.78;;;23.72;57.82
72308;BME280;60257;42.638;23.376;2023-06-22T07:24:20;95092.38;;;23.86;57.32
72308;BME280;60257;42.638;23.376;2023-06-22T07:26:47;95087.81;;;23.99;55.08
72308;BME280;60257;42.638;23.376;2023-06-22T07:29:13;95080.53;;;24.02;55.27
72308;BME280;60257;42.638;23.376;2023-06-22T07:31:39;95075.88;;;24.18;54.86
72308;BME280;60257;42.638;23.376;2023-06-22T07:34:06;95081.91;;;24.21;55.14
72308;BME280;60257;42.638;23.376;2023-06-22T07:36:31;95075.50;;;24.16;55.76
72308;BME280;60257;42.638;23.376;2023-06-22T07:38:57;95077.47;;;24.23;56.21
72308;BME280;60257;42.638;23.376;2023-06-22T07:41:22;95079.88;;;24.21;54.69
72308;BME280;60257;42.638;23.376;2023-06-22T07:43:48;95084.88;;;24.06;55.23
72308;BME280;60257;42.638;23.376;2023-06-22T07:46:13;95073.28;;;24.08;56.56
72308;BME280;60257;42.638;23.376;2023-06-22T07:48:39;95087.81;;;24.26;56.43
72308;BME280;60257;42.638;23.376;2023-06-22T07:51:06;95086.97;;;24.29;55.72
72308;BME280;60257;42.638;23.376;2023-06-22T07:53:32;95090.25;;;24.47;55.02
72308;BME280;60257;42.638;23.376;2023-06-22T07:55:57;95088.22;;;24.71;54.70
72308;BME280;60257;42.638;23.376;2023-06-22T07:58:23;95081.47;;;24.92;52.63
72308;BME280;60257;42.638;23.376;2023-06-22T08:00:48;95079.47;;;25.12;51.63
72308;BME280;60257;42.638;23.376;2023-06-22T08:03:15;95075.50;;;25.10;52.31
72308;BME280;60257;42.638;23.376;2023-06-22T08:05:40;95071.00;;;25.36;51.05
72308;BME280;60257;42.638;23.376;2023-06-22T08:08:06;95078.63;;;25.55;50.99
72308;BME280;60257;42.638;23.376;2023-06-22T08:10:31;95074.00;;;25.64;51.11
72308;BME280;60257;42.638;23.376;2023-06-22T08:12:57;95075.44;;;25.73;52.16
72308;BME280;60257;42.638;23.376;2023-06-22T08:15:22;95060.75;;;25.65;50.98
72308;BME280;60257;42.638;23.376;2023-06-22T08:17:48;95071.88;;;25.88;52.27
72308;BME280;60257;42.638;23.376;2023-06-22T08:20:14;95073.41;;;25.93;51.00
72308;BME280;60257;42.638;23.376;2023-06-22T08:22:41;95076.16;;;25.57;51.14
72308;BME280;60257;42.638;23.376;2023-06-22T08:25:07;95037.19;;;25.23;51.85
72308;BME280;60257;42.638;23.376;2023-06-22T08:27:33;95058.44;;;25.40;51.53
72308;BME280;60257;42.638;23.376;2023-06-22T08:29:59;95052.34;;;25.45;50.26
72308;BME280;60257;42.638;23.376;2023-06-22T08:32:26;95062.28;;;25.70;50.82
72308;BME280;60257;42.638;23.376;2023-06-22T08:34:56;95055.75;;;25.92;51.34
72308;BME280;60257;42.638;23.376;2023-06-22T08:37:22;95048.28;;;26.18;51.39
72308;BME280;60257;42.638;23.376;2023-06-22T08:39:56;95058.25;;;26.39;50.39
72308;BME280;60257;42.638;23.376;2023-06-22T08:42:22;95058.75;;;26.50;50.11
72308;BME280;60257;42.638;23.376;2023-06-22T08:44:49;95064.03;;;26.64;49.21
72308;BME280;60257;42.638;23.376;2023-06-22T08:47:14;95059.13;;;26.68;49.33
72308;BME280;60257;42.638;23.376;2023-06-22T08:49:40;95056.69;;;26.38;49.22
72308;BME280;60257;42.638;23.376;2023-06-22T08:52:06;95061.50;;;26.37;49.34
72308;BME280;60257;42.638;23.376;2023-06-22T08:54:31;95070.75;;;26.02;49.25
72308;BME280;60257;42.638;23.376;2023-06-22T08:57:00;95064.50;;;25.94;49.54
72308;BME280;60257;42.638;23.376;2023-06-22T08:59:25;95063.50;;;25.68;49.75
72308;BME280;60257;42.638;23.376;2023-06-22T09:01:51;95058.06;;;25.58;49.61
72308;BME280;60257;42.638;23.376;2023-06-22T09:04:16;95049.63;;;25.61;50.94
72308;BME280;60257;42.638;23.376;2023-06-22T09:06:42;95046.72;;;25.65;51.83
72308;BME280;60257;42.638;23.376;2023-06-22T09:09:12;95034.28;;;25.82;51.34
72308;BME280;60257;42.638;23.376;2023-06-22T09:11:37;95039.31;;;25.91;51.92
72308;BME280;60257;42.638;23.376;2023-06-22T09:14:03;95037.13;;;25.98;51.28
72308;BME280;60257;42.638;23.376;2023-06-22T09:16:29;95044.50;;;25.92;50.06
72308;BME280;60257;42.638;23.376;2023-06-22T09:18:54;95046.09;;;25.93;48.94
72308;BME280;60257;42.638;23.376;2023-06-22T09:21:20;95042.19;;;25.87;48.79
72308;BME280;60257;42.638;23.376;2023-06-22T09:23:45;95045.09;;;25.84;48.44
72308;BME280;60257;42.638;23.376;2023-06-22T09:26:15;95043.72;;;25.92;49.00
72308;BME280;60257;42.638;23.376;2023-06-22T09:28:41;95034.56;;;26.04;48.91
72308;BME280;60257;42.638;23.376;2023-06-22T09:31:06;95033.09;;;25.99;48.46
72308;BME280;60257;42.638;23.376;2023-06-22T09:33:32;95039.84;;;26.02;48.31
72308;BME280;60257;42.638;23.376;2023-06-22T09:35:57;95052.75;;;25.99;47.37
72308;BME280;60257;42.638;23.376;2023-06-22T09:38:23;95055.56;;;25.99;47.74
72308;BME280;60257;42.638;23.376;2023-06-22T09:40:48;95058.03;;;25.97;46.85
72308;BME280;60257;42.638;23.376;2023-06-22T09:43:14;95058.47;;;26.12;45.49
72308;BME280;60257;42.638;23.376;2023-06-22T09:45:39;95056.72;;;26.18;45.58
72308;BME280;60257;42.638;23.376;2023-06-22T09:48:05;95046.13;;;26.26;45.04
72308;BME280;60257;42.638;23.376;2023-06-22T09:50:30;95047.88;;;26.36;46.39
72308;BME280;60257;42.638;23.376;2023-06-22T09:52:56;95048.00;;;26.32;45.80
72308;BME280;60257;42.638;23.376;2023-06-22T09:55:22;95041.91;;;26.50;44.64
72308;BME280;60257;42.638;23.376;2023-06-22T09:57:47;95041.03;;;26.53;45.22
72308;BME280;60257;42.638;23.376;2023-06-22T10:00:17;95036.88;;;26.58;45.09
72308;BME280;60257;42.638;23.376;2023-06-22T10:02:44;95029.06;;;26.49;44.78
72308;BME280;60257;42.638;23.376;2023-06-22T10:05:10;95028.34;;;26.61;46.33
72308;BME280;60257;42.638;23.376;2023-06-22T10:07:35;95023.59;;;26.58;44.50
72308;BME280;60257;42.638;23.376;2023-06-22T10:10:06;95024.56;;;26.68;45.59
72308;BME280;60257;42.638;23.376;2023-06-22T10:12:31;95027.00;;;26.82;44.06
72308;BME280;60257;42.638;23.376;2023-06-22T10:14:57;95018.06;;;26.71;44.38
72308;BME280;60257;42.638;23.376;2023-06-22T10:17:22;95024.19;;;26.66;44.68
72308;BME280;60257;42.638;23.376;2023-06-22T10:19:48;95020.28;;;26.63;43.76
72308;BME280;60257;42.638;23.376;2023-06-22T10:22:13;95010.69;;;26.61;43.19
72308;BME280;60257;42.638;23.376;2023-06-22T10:24:39;95019.47;;;26.63;42.09
72308;BME280;60257;42.638;23.376;2023-06-22T10:27:12;95015.50;;;26.76;42.48
72308;BME280;60257;42.638;23.376;2023-06-22T10:29:39;95015.91;;;26.91;41.38
72308;BME280;60257;42.638;23.376;2023-06-22T10:32:05;95009.41;;;26.94;41.52
72308;BME280;60257;42.638;23.376;2023-06-22T10:34:30;95006.28;;;27.05;40.92
72308;BME280;60257;42.638;23.376;2023-06-22T10:36:56;95015.75;;;27.11;43.52
72308;BME280;60257;42.638;23.376;2023-06-22T10:39:21;95009.75;;;27.25;41.34
72308;BME280;60257;42.638;23.376;2023-06-22T10:41:46;95005.25;;;27.40;40.63
72308;BME280;60257;42.638;23.376;2023-06-22T10:44:12;95007.03;;;27.34;41.72
72308;BME280;60257;42.638;23.376;2023-06-22T10:46:38;95006.28;;;27.46;42.15
72308;BME280;60257;42.638;23.376;2023-06-22T10:49:04;94996.97;;;27.62;42.50
72308;BME280;60257;42.638;23.376;2023-06-22T10:51:29;94996.41;;;27.67;40.52
72308;BME280;60257;42.638;23.376;2023-06-22T10:53:57;95004.41;;;27.69;40.91
72308;BME280;60257;42.638;23.376;2023-06-22T10:56:22;94977.03;;;27.69;41.16
72308;BME280;60257;42.638;23.376;2023-06-22T10:58:47;94992.25;;;27.72;40.40
72308;BME280;60257;42.638;23.376;2023-06-22T11:01:13;94988.97;;;27.73;40.76
72308;BME280;60257;42.638;23.376;2023-06-22T11:03:39;94995.19;;;27.68;41.87
72308;BME280;60257;42.638;23.376;2023-06-22T11:06:05;94993.03;;;27.72;42.23
72308;BME280;60257;42.638;23.376;2023-06-22T11:08:30;94995.53;;;27.70;41.20
72308;BME280;60257;42.638;23.376;2023-06-22T11:10:56;94989.53;;;27.68;41.89
72308;BME280;60257;42.638;23.376;2023-06-22T11:13:21;94993.38;;;27.74;41.37
72308;BME280;60257;42.638;23.376;2023-06-22T11:15:46;94991.78;;;27.73;42.06
72308;BME280;60257;42.638;23.376;2023-06-22T11:18:12;94997.78;;;27.75;40.34
72308;BME280;60257;42.638;23.376;2023-06-22T11:20:37;94979.84;;;27.82;40.25
72308;BME280;60257;42.638;23.376;2023-06-22T11:23:06;94991.34;;;27.75;39.85
72308;BME280;60257;42.638;23.376;2023-06-22T11:25:32;94981.44;;;27.83;41.53
72308;BME280;60257;42.638;23.376;2023-06-22T11:28:01;94995.28;;;27.90;40.66
72308;BME280;60257;42.638;23.376;2023-06-22T11:30:27;94973.28;;;27.98;38.10
72308;BME280;60257;42.638;23.376;2023-06-22T11:32:53;94972.31;;;28.17;38.13
72308;BME280;60257;42.638;23.376;2023-06-22T11:35:18;94973.75;;;28.21;36.77
72308;BME280;60257;42.638;23.376;2023-06-22T11:37:43;94978.34;;;28.41;36.56
72308;BME280;60257;42.638;23.376;2023-06-22T11:40:09;94978.34;;;28.41;36.56
72308;BME280;60257;42.638;23.376;2023-06-22T11:42:35;94960.97;;;29.20;36.64
72308;BME280;60257;42.638;23.376;2023-06-22T11:45:01;94968.50;;;29.36;36.33
72308;BME280;60257;42.638;23.376;2023-06-22T11:47:27;94970.63;;;29.32;35.98
72308;BME280;60257;42.638;23.376;2023-06-22T11:49:53;94961.00;;;29.42;36.72
72308;BME280;60257;42.638;23.376;2023-06-22T11:52:18;94951.06;;;29.37;35.83
72308;BME280;60257;42.638;23.376;2023-06-22T11:54:44;94955.09;;;29.49;36.01
72308;BME280;60257;42.638;23.376;2023-06-22T11:57:11;94955.81;;;29.40;36.21
72308;BME280;60257;42.638;23.376;2023-06-22T11:59:36;94953.03;;;29.80;35.32
72308;BME280;60257;42.638;23.376;2023-06-22T12:02:02;62851.41;;;-143.68;100.00
72308;BME280;60257;42.638;23.376;2023-06-22T12:04:28;62851.41;;;-143.68;100.00
72308;BME280;60257;42.638;23.376;2023-06-22T12:06:54;62851.41;;;-143.68;100.00
72308;BME280;60257;42.638;23.376;2023-06-22T12:09:19;62851.41;;;-143.68;100.00
72308;BME280;60257;42.638;23.376;2023-06-22T12:11:45;62851.41;;;-143.68;100.00
72308;BME280;60257;42.638;23.376;2023-06-22T12:16:15;94945.69;;;30.41;33.46
72308;BME280;60257;42.638;23.376;2023-06-22T12:18:40;94963.84;;;30.04;34.65
72308;BME280;60257;42.638;23.376;2023-06-22T12:21:06;94978.56;;;29.68;35.72
72308;BME280;60257;42.638;23.376;2023-06-22T12:23:32;94970.06;;;28.93;39.99
72308;BME280;60257;42.638;23.376;2023-06-22T12:25:57;94962.91;;;28.20;42.35
72308;BME280;60257;42.638;23.376;2023-06-22T12:28:24;94970.72;;;27.90;44.04
72308;BME280;60257;42.638;23.376;2023-06-22T12:30:50;94976.56;;;27.58;45.25
72308;BME280;60257;42.638;23.376;2023-06-22T12:33:15;94975.03;;;27.28;46.46
72308;BME280;60257;42.638;23.376;2023-06-22T12:35:41;94976.53;;;27.04;47.69
72308;BME280;60257;42.638;23.376;2023-06-22T12:38:06;94995.09;;;26.72;49.19
72308;BME280;60257;42.638;23.376;2023-06-22T12:40:33;95014.66;;;26.47;49.78
72308;BME280;60257;42.638;23.376;2023-06-22T12:42:58;95029.94;;;26.14;51.40
72308;BME280;60257;42.638;23.376;2023-06-22T12:45:24;95027.09;;;25.81;52.87
72308;BME280;60257;42.638;23.376;2023-06-22T12:47:54;95031.44;;;25.66;57.91
72308;BME280;60257;42.638;23.376;2023-06-22T12:50:19;95023.84;;;25.27;62.67
72308;BME280;60257;42.638;23.376;2023-06-22T12:52:45;95037.91;;;25.07;65.66